Al Khuwair — C6VM6 — position and weather

sailwx.info

Track history (hours):
 
Tides and Currents Weather Stations Pressure Air Temp Water Temp Dewpoint Dewpoint Depression Visibility Wind Speed Wind Dir Waves Ship Positions

Al Khuwair

Last reported at 2017-Aug-19 09:29 UTC. Time now 2017-Sep-24 10:33 UTC.
Position N 30°41' E 032°20'.
Warning: this ship's position is 36 days out of date.

Length 315 m; draft 9.4 m.

Type: Ship (hazmat cat A). MMSI: 311000140.

Date/timePositionNaut miles runAvg speedWind from/ knotsBaromVisibWave heightAir tempDewpointWater temp
2017-Aug-19 09:29N 30°41' E 032°20'4 8.1
2017-Aug-19 09:00N 30°45' E 032°19'4 7.9
2017-Aug-19 08:30N 30°49' E 032°19'  
2017-Aug-15 14:45N 35°49' E 015°17'415.5
2017-Aug-15 14:30N 35°51' E 015°13'815.1
2017-Aug-15 14:00N 35°52' E 015°03'612.4
2017-Aug-15 13:30N 35°53' E 014°56'0 0.9
2017-Aug-15 13:00N 35°52' E 014°55'0 0.2
2017-Aug-15 12:27N 35°52' E 014°55'0 0.0
2017-Aug-15 12:00N 35°52' E 014°55'0 0.0
2017-Aug-15 11:30N 35°52' E 014°55'0 0.0
2017-Aug-15 10:54N 35°52' E 014°55'0 0.0
2017-Aug-15 10:24N 35°52' E 014°55'0 0.0
2017-Aug-15 09:51N 35°52' E 014°55'0 0.0
2017-Aug-15 09:15N 35°52' E 014°55'0 0.0
2017-Aug-15 08:57N 35°52' E 014°55'0 0.0
2017-Aug-15 08:21N 35°52' E 014°55'0 0.0
2017-Aug-15 08:00N 35°52' E 014°55'0 0.0
2017-Aug-15 07:24N 35°52' E 014°55'0 0.0
2017-Aug-15 06:57N 35°52' E 014°55'0 0.0
2017-Aug-15 06:30N 35°52' E 014°55'0 0.0
2017-Aug-15 05:57N 35°52' E 014°55'0 0.0
2017-Aug-15 05:30N 35°52' E 014°55'0 0.0
2017-Aug-15 05:00N 35°52' E 014°55'0 0.0
2017-Aug-15 04:30N 35°52' E 014°55'0 0.0
2017-Aug-15 04:00N 35°52' E 014°55'0 0.1
2017-Aug-15 03:30N 35°52' E 014°55'0 0.1
2017-Aug-15 03:00N 35°52' E 014°55'0 0.0
2017-Aug-15 02:30N 35°52' E 014°55'0 0.1
2017-Aug-15 02:00N 35°52' E 014°55'0 0.0
2017-Aug-15 01:30N 35°52' E 014°55'0 0.0
2017-Aug-15 01:00N 35°52' E 014°55'0 0.1
2017-Aug-15 00:30N 35°52' E 014°55'0 0.0
2017-Aug-14 23:57N 35°52' E 014°55'0 0.0
2017-Aug-14 23:30N 35°52' E 014°55'0 0.0
2017-Aug-14 22:57N 35°52' E 014°55'0 0.0
2017-Aug-14 22:27N 35°52' E 014°55'0 0.0
2017-Aug-14 22:00N 35°52' E 014°55'0 0.0
2017-Aug-14 21:30N 35°52' E 014°55'0 0.0
2017-Aug-14 21:00N 35°52' E 014°55'0 0.0
2017-Aug-14 20:30N 35°52' E 014°55'0 0.0
2017-Aug-14 20:00N 35°52' E 014°55'0 0.0
2017-Aug-14 19:30N 35°52' E 014°55'0 0.0
2017-Aug-14 19:00N 35°52' E 014°55'0 0.0
2017-Aug-14 18:30N 35°52' E 014°55'0 0.3
2017-Aug-14 18:00N 35°52' E 014°55'2 4.1
2017-Aug-14 17:30N 35°51' E 014°56'2 3.1
2017-Aug-14 17:00N 35°50' E 014°54'4 8.9
2017-Aug-14 16:30N 35°53' E 014°50'2 3.1
2017-Aug-14 15:58N 35°53' E 014°48'0 0.2
2017-Aug-14 15:25N 35°53' E 014°48'0 0.0
2017-Aug-14 14:58N 35°53' E 014°48'0 0.0
2017-Aug-14 14:28N 35°53' E 014°48'0 0.0
2017-Aug-14 13:58N 35°53' E 014°48'0 0.0
2017-Aug-14 13:28N 35°53' E 014°48'0 0.0
2017-Aug-14 12:58N 35°53' E 014°48'0 0.0
2017-Aug-14 12:28N 35°53' E 014°48'0 0.0
2017-Aug-14 11:55N 35°53' E 014°48'0 0.0
2017-Aug-14 11:28N 35°53' E 014°48'0 0.0
2017-Aug-14 10:58N 35°53' E 014°48'0 0.0
2017-Aug-14 10:28N 35°53' E 014°48'0 0.0
2017-Aug-14 09:55N 35°53' E 014°48'0 0.1
2017-Aug-14 09:28N 35°53' E 014°48'0 0.1
2017-Aug-14 08:58N 35°53' E 014°48'0 0.1
2017-Aug-14 08:28N 35°53' E 014°48'0 0.0
2017-Aug-14 07:58N 35°53' E 014°48'0 0.1
2017-Aug-14 07:28N 35°53' E 014°48'0 0.1
2017-Aug-14 06:49N 35°53' E 014°48'0 0.0
2017-Aug-14 06:28N 35°53' E 014°48'0 0.0
2017-Aug-14 05:46N 35°53' E 014°48'0 0.0
2017-Aug-14 05:25N 35°53' E 014°48'0 0.0
2017-Aug-14 04:55N 35°53' E 014°48'0 0.0
2017-Aug-14 03:43N 35°53' E 014°48'0 0.0
2017-Aug-14 03:28N 35°53' E 014°48'0 0.0
2017-Aug-14 02:58N 35°53' E 014°48'0 0.1
2017-Aug-14 02:28N 35°53' E 014°48'0 0.1
2017-Aug-14 01:58N 35°53' E 014°48'0 0.0
2017-Aug-14 01:28N 35°53' E 014°48'0 0.0
2017-Aug-14 00:58N 35°53' E 014°48'0 0.0
2017-Aug-14 00:28N 35°53' E 014°48'0 0.0
2017-Aug-13 23:58N 35°53' E 014°48'0 0.0
2017-Aug-13 23:28N 35°53' E 014°48'0 0.0
2017-Aug-13 22:58N 35°53' E 014°48'0 0.0
2017-Aug-13 22:28N 35°53' E 014°48'0 0.0
2017-Aug-13 21:58N 35°53' E 014°48'0 0.0
2017-Aug-13 21:28N 35°53' E 014°48'0 0.0
2017-Aug-13 20:58N 35°53' E 014°48'0 0.0
2017-Aug-13 20:28N 35°53' E 014°48'0 0.0
2017-Aug-13 19:55N 35°53' E 014°48'0 0.0
2017-Aug-13 19:28N 35°53' E 014°48'0 0.0
2017-Aug-13 18:58N 35°53' E 014°48'0 0.0
2017-Aug-13 18:28N 35°53' E 014°48'0 0.0
2017-Aug-13 17:58N 35°53' E 014°48'0 0.0
2017-Aug-13 17:28N 35°53' E 014°48'0 0.0
2017-Aug-13 16:58N 35°53' E 014°48'0 0.0
2017-Aug-13 16:28N 35°53' E 014°48'0 0.0
2017-Aug-13 15:58N 35°53' E 014°48'0 0.1
2017-Aug-13 15:28N 35°53' E 014°48'0 0.0
2017-Aug-13 14:58N 35°53' E 014°48'0 0.0
2017-Aug-13 14:28N 35°53' E 014°48'0 0.0
2017-Aug-13 13:58N 35°53' E 014°48'0 0.0
2017-Aug-13 13:28N 35°53' E 014°48'0 0.0
2017-Aug-13 12:58N 35°53' E 014°48'0 0.0
2017-Aug-13 12:28N 35°53' E 014°48'0 0.0
2017-Aug-13 11:58N 35°53' E 014°48'0 0.0
2017-Aug-13 11:25N 35°53' E 014°48'0 0.0
2017-Aug-13 10:58N 35°53' E 014°48'0 0.0
2017-Aug-13 10:28N 35°53' E 014°48'0 0.0
2017-Aug-13 09:58N 35°53' E 014°48'0 0.0
2017-Aug-13 09:28N 35°53' E 014°48'0 0.0
2017-Aug-13 08:58N 35°53' E 014°48'0 0.1
2017-Aug-13 08:28N 35°53' E 014°48'0 0.0
2017-Aug-13 07:58N 35°53' E 014°48'0 0.0
2017-Aug-13 07:28N 35°53' E 014°48'0 0.0
2017-Aug-13 06:55N 35°53' E 014°48'0 0.0
2017-Aug-13 06:28N 35°53' E 014°48'0 0.0
2017-Aug-13 05:55N 35°53' E 014°48'0 0.0
2017-Aug-13 05:28N 35°53' E 014°48'0 0.0
2017-Aug-13 04:58N 35°53' E 014°48'0 0.0
2017-Aug-13 04:28N 35°53' E 014°48'0 0.0
2017-Aug-13 03:58N 35°53' E 014°48'0 0.0
2017-Aug-13 03:28N 35°53' E 014°48'0 0.0
2017-Aug-13 02:58N 35°53' E 014°48'0 0.0
2017-Aug-13 02:28N 35°53' E 014°48'0 0.0
2017-Aug-13 01:58N 35°53' E 014°48'0 0.1
2017-Aug-13 01:28N 35°53' E 014°48'0 0.0
2017-Aug-13 00:55N 35°53' E 014°48'0 0.0
2017-Aug-13 00:25N 35°53' E 014°48'0 0.0
2017-Aug-12 23:58N 35°53' E 014°48'0 0.0
2017-Aug-12 23:28N 35°53' E 014°48'0 0.1
2017-Aug-12 22:58N 35°53' E 014°48'0 0.1
2017-Aug-12 22:28N 35°53' E 014°48'0 0.0
2017-Aug-12 21:58N 35°53' E 014°48'0 0.1
2017-Aug-12 21:28N 35°53' E 014°48'0 0.1
2017-Aug-12 20:58N 35°53' E 014°48'0 0.1
2017-Aug-12 20:28N 35°53' E 014°48'0 0.0
2017-Aug-12 19:58N 35°53' E 014°48'0 0.1
2017-Aug-12 19:25N 35°53' E 014°48'0 0.1
2017-Aug-12 18:58N 35°53' E 014°48'0 0.0
2017-Aug-12 18:28N 35°53' E 014°48'0 0.0
2017-Aug-12 17:58N 35°53' E 014°48'0 0.1
2017-Aug-12 17:22N 35°53' E 014°48'0 0.1
2017-Aug-12 16:58N 35°53' E 014°48'0 0.1
2017-Aug-12 16:25N 35°53' E 014°48'0 0.1
2017-Aug-12 15:58N 35°53' E 014°48'0 0.0
2017-Aug-12 15:25N 35°53' E 014°48'0 0.0
2017-Aug-12 14:55N 35°53' E 014°48'0 0.1
2017-Aug-12 14:28N 35°53' E 014°48'0 0.0
2017-Aug-12 13:58N 35°53' E 014°48'0 0.1
2017-Aug-12 13:28N 35°53' E 014°48'0 0.1
2017-Aug-12 12:58N 35°53' E 014°48'0 0.1
2017-Aug-12 12:28N 35°53' E 014°48'0 0.0
2017-Aug-12 11:58N 35°53' E 014°48'0 0.0
2017-Aug-12 11:28N 35°53' E 014°48'0 0.0
2017-Aug-12 10:58N 35°53' E 014°48'0 0.0
2017-Aug-12 10:28N 35°53' E 014°48'0 0.0
2017-Aug-12 09:58N 35°53' E 014°48'0 0.0
2017-Aug-12 09:28N 35°53' E 014°48'0 0.0
2017-Aug-12 08:58N 35°53' E 014°48'0 0.0
2017-Aug-12 08:28N 35°53' E 014°48'0 0.0
2017-Aug-12 07:58N 35°53' E 014°48'0 0.0
2017-Aug-12 07:28N 35°53' E 014°48'0 0.1
2017-Aug-12 06:58N 35°53' E 014°48'0 0.1
2017-Aug-12 06:22N 35°53' E 014°48'0 0.0
2017-Aug-12 05:58N 35°53' E 014°48'0 0.0
2017-Aug-12 05:28N 35°53' E 014°48'0 0.0
2017-Aug-12 04:58N 35°53' E 014°48'0 0.0
2017-Aug-12 04:28N 35°53' E 014°48'0 0.0
2017-Aug-12 03:58N 35°53' E 014°48'0 0.0
2017-Aug-12 03:28N 35°53' E 014°48'0 0.0
2017-Aug-12 02:58N 35°53' E 014°48'0 0.0
2017-Aug-12 02:28N 35°53' E 014°48'0 0.0
2017-Aug-12 01:58N 35°53' E 014°48'0 0.0
2017-Aug-12 01:28N 35°53' E 014°48'0 0.0
2017-Aug-12 00:58N 35°53' E 014°48'0 0.0
2017-Aug-12 00:28N 35°53' E 014°48'0 0.0
2017-Aug-11 23:58N 35°53' E 014°48'0 0.0
2017-Aug-11 23:28N 35°53' E 014°48'0 0.0
2017-Aug-11 22:58N 35°53' E 014°48'0 0.0
2017-Aug-11 22:28N 35°53' E 014°48'0 0.0
2017-Aug-11 21:58N 35°53' E 014°48'0 0.0
2017-Aug-11 21:28N 35°53' E 014°48'0 0.0
2017-Aug-11 20:49N 35°53' E 014°48'0 0.1
2017-Aug-11 20:28N 35°53' E 014°48'0 0.1
2017-Aug-11 19:58N 35°53' E 014°48'0 0.0
2017-Aug-11 19:28N 35°53' E 014°48'0 0.0
2017-Aug-11 18:58N 35°53' E 014°48'0 0.0
2017-Aug-11 18:28N 35°53' E 014°48'0 0.0
2017-Aug-11 17:55N 35°53' E 014°48'0 0.0
2017-Aug-11 17:28N 35°53' E 014°48'0 0.0
2017-Aug-11 16:58N 35°53' E 014°48'0 0.0
2017-Aug-11 16:28N 35°53' E 014°48'0 0.1
2017-Aug-11 15:58N 35°53' E 014°48'0 0.0
2017-Aug-11 15:28N 35°53' E 014°48'0 0.0
2017-Aug-11 14:58N 35°53' E 014°48'0 0.0
2017-Aug-11 13:58N 35°53' E 014°48'0 0.0
2017-Aug-11 13:28N 35°53' E 014°48'0 0.0
2017-Aug-11 12:58N 35°53' E 014°48'0 0.0
2017-Aug-11 12:28N 35°53' E 014°48'0 0.0
2017-Aug-11 11:58N 35°53' E 014°48'0 0.0
2017-Aug-11 11:28N 35°53' E 014°48'0 0.1
2017-Aug-11 10:58N 35°53' E 014°48'0 0.0
2017-Aug-11 10:28N 35°53' E 014°48'0 0.0
2017-Aug-11 09:58N 35°53' E 014°48'0 0.0
2017-Aug-11 09:28N 35°53' E 014°48'0 0.0
2017-Aug-11 08:52N 35°53' E 014°48'0 0.0
2017-Aug-11 08:28N 35°53' E 014°48'0 0.0
2017-Aug-11 07:58N 35°53' E 014°48'0 0.0
2017-Aug-11 07:25N 35°53' E 014°48'0 0.1
2017-Aug-11 06:58N 35°53' E 014°48'0 0.0
2017-Aug-11 06:28N 35°53' E 014°48'0 0.0
2017-Aug-11 05:58N 35°53' E 014°48'0 0.0
2017-Aug-11 05:28N 35°53' E 014°48'0 0.0
2017-Aug-11 04:58N 35°53' E 014°48'0 0.0
2017-Aug-11 04:28N 35°53' E 014°48'0 0.0
2017-Aug-11 03:55N 35°53' E 014°48'0 0.1
2017-Aug-11 03:28N 35°53' E 014°48'0 0.1
2017-Aug-11 02:58N 35°53' E 014°48'0 0.0
2017-Aug-11 02:28N 35°53' E 014°48'0 0.0
2017-Aug-11 01:58N 35°53' E 014°48'0 0.0
2017-Aug-11 01:28N 35°53' E 014°48'0 0.0
2017-Aug-11 00:58N 35°53' E 014°48'0 0.1
2017-Aug-11 00:28N 35°53' E 014°48'0 0.1
2017-Aug-10 23:55N 35°53' E 014°48'0 0.1
2017-Aug-10 23:28N 35°53' E 014°48'0 0.0
2017-Aug-10 22:55N 35°53' E 014°48'0 0.0
2017-Aug-10 22:28N 35°53' E 014°48'0 0.0
2017-Aug-10 21:58N 35°53' E 014°48'0 0.1
2017-Aug-10 21:28N 35°53' E 014°48'0 0.1
2017-Aug-10 20:55N 35°53' E 014°48'0 0.1
2017-Aug-10 20:28N 35°53' E 014°48'0 0.1
2017-Aug-10 19:58N 35°53' E 014°48'1 1.5
2017-Aug-10 19:30N 35°53' E 014°49'3 5.3
2017-Aug-10 18:59N 35°52' E 014°52'3 5.4
2017-Aug-10 18:30N 35°51' E 014°55'0 0.6
2017-Aug-10 18:00N 35°51' E 014°55'2 3.2
2017-Aug-10 17:30N 35°52' E 014°57'4 8.1
2017-Aug-10 17:00N 35°54' E 015°01'1 2.8
2017-Aug-10 16:30N 35°56' E 015°01'1 1.0
2017-Aug-10 16:00N 35°56' E 015°01'1 1.1
2017-Aug-10 15:30N 35°56' E 015°00'1 1.1
2017-Aug-10 15:00N 35°57' E 014°60'1 1.1
2017-Aug-10 14:30N 35°57' E 014°59'1 1.1
2017-Aug-10 14:00N 35°57' E 014°59'0 0.9
2017-Aug-10 13:30N 35°58' E 014°58'0 0.7
2017-Aug-10 13:00N 35°58' E 014°58'0 0.7
2017-Aug-10 12:30N 35°58' E 014°58'0 0.7
2017-Aug-10 12:00N 35°58' E 014°57'0 0.7
2017-Aug-10 11:29N 35°59' E 014°57'0 0.9
2017-Aug-10 11:00N 35°59' E 014°57'1 1.5
2017-Aug-10 10:30N 35°58' E 014°56'2 4.2
2017-Aug-10 10:00N 35°57' E 014°58'5 9.1
2017-Aug-10 09:30N 35°53' E 015°01'2 4.6
2017-Aug-10 09:00N 35°51' E 015°01'1 2.0
2017-Aug-10 08:30N 35°52' E 015°00'2 4.1
2017-Aug-10 08:00N 35°52' E 014°58'1 1.6
2017-Aug-10 07:30N 35°53' E 014°58'0 0.9
2017-Aug-10 07:00N 35°53' E 014°58'0 0.9
2017-Aug-10 06:30N 35°54' E 014°58'0 0.8
2017-Aug-10 06:00N 35°54' E 014°58'0 0.8
2017-Aug-10 05:30N 35°55' E 014°58'0 0.9
2017-Aug-10 05:00N 35°55' E 014°58'0 1.0
2017-Aug-10 04:30N 35°55' E 014°57'3 5.4
2017-Aug-10 04:00N 35°58' E 014°56'613.0
2017-Aug-10 03:31N 36°01' E 014°49'713.1
2017-Aug-10 03:00N 36°02' E 014°41'713.1
2017-Aug-10 02:30N 36°04' E 014°33'815.5
2017-Aug-10 02:00N 36°07' E 014°25'815.6
2017-Aug-10 01:30N 36°11' E 014°16'815.6
2017-Aug-10 01:00N 36°14' E 014°07'815.5
2017-Aug-10 00:30N 36°17' E 013°58'815.4
2017-Aug-10 00:00N 36°20' E 013°49'815.3
2017-Aug-09 23:30N 36°23' E 013°41'815.3
2017-Aug-09 23:00N 36°26' E 013°32'815.1
2017-Aug-09 22:30N 36°30' E 013°24'815.1
2017-Aug-09 22:00N 36°34' E 013°16'815.0
2017-Aug-09 21:30N 36°37' E 013°07'714.9
2017-Aug-09 21:00N 36°41' E 012°59'715.0
2017-Aug-09 20:30N 36°44' E 012°51'714.8
2017-Aug-09 20:00N 36°48' E 012°43'714.7
2017-Aug-09 19:30N 36°50' E 012°34'714.9
2017-Aug-09 19:00N 36°52' E 012°25'714.9
2017-Aug-09 18:30N 36°54' E 012°16'714.8
2017-Aug-09 18:00N 36°57' E 012°08'714.9
2017-Aug-09 17:30N 37°00' E 011°59'815.0
2017-Aug-09 17:00N 37°04' E 011°51'815.1
2017-Aug-09 16:30N 37°08' E 011°43'815.2
2017-Aug-09 16:00N 37°12' E 011°35'815.1
2017-Aug-09 15:30N 37°16' E 011°27'815.0
2017-Aug-09 15:00N 37°20' E 011°19'715.0
2017-Aug-09 14:30N 37°23' E 011°10'715.0
2017-Aug-09 14:00N 37°26' E 011°02'815.4
2017-Aug-09 13:30N 37°30' E 010°53'815.6
2017-Aug-09 13:00N 37°34' E 010°45'815.7
2017-Aug-09 12:30N 37°38' E 010°36'815.8
2017-Aug-09 11:59N 37°42' E 010°27'815.7
2017-Aug-09 11:30N 37°45' E 010°19'815.8
2017-Aug-09 10:59N 37°49' E 010°10'815.8
2017-Aug-09 10:29N 37°53' E 010°01'815.8
2017-Aug-09 09:59N 37°56' E 009°52'815.7
2017-Aug-09 09:30N 37°59' E 009°43'  
Track history (hours):
 
Tides and Currents Weather Stations Pressure Air Temp Water Temp Dewpoint Dewpoint Depression Visibility Wind Speed Wind Dir Waves Ship Positions

Al Khuwair

Last reported at 2017-Aug-19 09:29 UTC. Time now 2017-Sep-24 10:33 UTC.
Position N 30°41' E 032°20'.
Warning: this ship's position is 36 days out of date.

Length 315 m; draft 9.4 m.

Type: Ship (hazmat cat A). MMSI: 311000140.

Date/timePositionNaut miles runAvg speedWind from/ knotsBaromVisibWave heightAir tempDewpointWater temp
2017-Aug-19 09:29N 30°41' E 032°20'4 8.1
2017-Aug-19 09:00N 30°45' E 032°19'4 7.9
2017-Aug-19 08:30N 30°49' E 032°19'  
2017-Aug-15 14:45N 35°49' E 015°17'415.5
2017-Aug-15 14:30N 35°51' E 015°13'815.1
2017-Aug-15 14:00N 35°52' E 015°03'612.4
2017-Aug-15 13:30N 35°53' E 014°56'0 0.9
2017-Aug-15 13:00N 35°52' E 014°55'0 0.2
2017-Aug-15 12:27N 35°52' E 014°55'0 0.0
2017-Aug-15 12:00N 35°52' E 014°55'0 0.0
2017-Aug-15 11:30N 35°52' E 014°55'0 0.0
2017-Aug-15 10:54N 35°52' E 014°55'0 0.0
2017-Aug-15 10:24N 35°52' E 014°55'0 0.0
2017-Aug-15 09:51N 35°52' E 014°55'0 0.0
2017-Aug-15 09:15N 35°52' E 014°55'0 0.0
2017-Aug-15 08:57N 35°52' E 014°55'0 0.0
2017-Aug-15 08:21N 35°52' E 014°55'0 0.0
2017-Aug-15 08:00N 35°52' E 014°55'0 0.0
2017-Aug-15 07:24N 35°52' E 014°55'0 0.0
2017-Aug-15 06:57N 35°52' E 014°55'0 0.0
2017-Aug-15 06:30N 35°52' E 014°55'0 0.0
2017-Aug-15 05:57N 35°52' E 014°55'0 0.0
2017-Aug-15 05:30N 35°52' E 014°55'0 0.0
2017-Aug-15 05:00N 35°52' E 014°55'0 0.0
2017-Aug-15 04:30N 35°52' E 014°55'0 0.0
2017-Aug-15 04:00N 35°52' E 014°55'0 0.1
2017-Aug-15 03:30N 35°52' E 014°55'0 0.1
2017-Aug-15 03:00N 35°52' E 014°55'0 0.0
2017-Aug-15 02:30N 35°52' E 014°55'0 0.1
2017-Aug-15 02:00N 35°52' E 014°55'0 0.0
2017-Aug-15 01:30N 35°52' E 014°55'0 0.0
2017-Aug-15 01:00N 35°52' E 014°55'0 0.1
2017-Aug-15 00:30N 35°52' E 014°55'0 0.0
2017-Aug-14 23:57N 35°52' E 014°55'0 0.0
2017-Aug-14 23:30N 35°52' E 014°55'0 0.0
2017-Aug-14 22:57N 35°52' E 014°55'0 0.0
2017-Aug-14 22:27N 35°52' E 014°55'0 0.0
2017-Aug-14 22:00N 35°52' E 014°55'0 0.0
2017-Aug-14 21:30N 35°52' E 014°55'0 0.0
2017-Aug-14 21:00N 35°52' E 014°55'0 0.0
2017-Aug-14 20:30N 35°52' E 014°55'0 0.0
2017-Aug-14 20:00N 35°52' E 014°55'0 0.0
2017-Aug-14 19:30N 35°52' E 014°55'0 0.0
2017-Aug-14 19:00N 35°52' E 014°55'0 0.0
2017-Aug-14 18:30N 35°52' E 014°55'0 0.3
2017-Aug-14 18:00N 35°52' E 014°55'2 4.1
2017-Aug-14 17:30N 35°51' E 014°56'2 3.1
2017-Aug-14 17:00N 35°50' E 014°54'4 8.9
2017-Aug-14 16:30N 35°53' E 014°50'2 3.1
2017-Aug-14 15:58N 35°53' E 014°48'0 0.2
2017-Aug-14 15:25N 35°53' E 014°48'0 0.0
2017-Aug-14 14:58N 35°53' E 014°48'0 0.0
2017-Aug-14 14:28N 35°53' E 014°48'0 0.0
2017-Aug-14 13:58N 35°53' E 014°48'0 0.0
2017-Aug-14 13:28N 35°53' E 014°48'0 0.0
2017-Aug-14 12:58N 35°53' E 014°48'0 0.0
2017-Aug-14 12:28N 35°53' E 014°48'0 0.0
2017-Aug-14 11:55N 35°53' E 014°48'0 0.0
2017-Aug-14 11:28N 35°53' E 014°48'0 0.0
2017-Aug-14 10:58N 35°53' E 014°48'0 0.0
2017-Aug-14 10:28N 35°53' E 014°48'0 0.0
2017-Aug-14 09:55N 35°53' E 014°48'0 0.1
2017-Aug-14 09:28N 35°53' E 014°48'0 0.1
2017-Aug-14 08:58N 35°53' E 014°48'0 0.1
2017-Aug-14 08:28N 35°53' E 014°48'0 0.0
2017-Aug-14 07:58N 35°53' E 014°48'0 0.1
2017-Aug-14 07:28N 35°53' E 014°48'0 0.1
2017-Aug-14 06:49N 35°53' E 014°48'0 0.0
2017-Aug-14 06:28N 35°53' E 014°48'0 0.0
2017-Aug-14 05:46N 35°53' E 014°48'0 0.0
2017-Aug-14 05:25N 35°53' E 014°48'0 0.0
2017-Aug-14 04:55N 35°53' E 014°48'0 0.0
2017-Aug-14 03:43N 35°53' E 014°48'0 0.0
2017-Aug-14 03:28N 35°53' E 014°48'0 0.0
2017-Aug-14 02:58N 35°53' E 014°48'0 0.1
2017-Aug-14 02:28N 35°53' E 014°48'0 0.1
2017-Aug-14 01:58N 35°53' E 014°48'0 0.0
2017-Aug-14 01:28N 35°53' E 014°48'0 0.0
2017-Aug-14 00:58N 35°53' E 014°48'0 0.0
2017-Aug-14 00:28N 35°53' E 014°48'0 0.0
2017-Aug-13 23:58N 35°53' E 014°48'0 0.0
2017-Aug-13 23:28N 35°53' E 014°48'0 0.0
2017-Aug-13 22:58N 35°53' E 014°48'0 0.0
2017-Aug-13 22:28N 35°53' E 014°48'0 0.0
2017-Aug-13 21:58N 35°53' E 014°48'0 0.0
2017-Aug-13 21:28N 35°53' E 014°48'0 0.0
2017-Aug-13 20:58N 35°53' E 014°48'0 0.0
2017-Aug-13 20:28N 35°53' E 014°48'0 0.0
2017-Aug-13 19:55N 35°53' E 014°48'0 0.0
2017-Aug-13 19:28N 35°53' E 014°48'0 0.0
2017-Aug-13 18:58N 35°53' E 014°48'0 0.0
2017-Aug-13 18:28N 35°53' E 014°48'0 0.0
2017-Aug-13 17:58N 35°53' E 014°48'0 0.0
2017-Aug-13 17:28N 35°53' E 014°48'0 0.0
2017-Aug-13 16:58N 35°53' E 014°48'0 0.0
2017-Aug-13 16:28N 35°53' E 014°48'0 0.0
2017-Aug-13 15:58N 35°53' E 014°48'0 0.1
2017-Aug-13 15:28N 35°53' E 014°48'0 0.0
2017-Aug-13 14:58N 35°53' E 014°48'0 0.0
2017-Aug-13 14:28N 35°53' E 014°48'0 0.0
2017-Aug-13 13:58N 35°53' E 014°48'0 0.0
2017-Aug-13 13:28N 35°53' E 014°48'0 0.0
2017-Aug-13 12:58N 35°53' E 014°48'0 0.0
2017-Aug-13 12:28N 35°53' E 014°48'0 0.0
2017-Aug-13 11:58N 35°53' E 014°48'0 0.0
2017-Aug-13 11:25N 35°53' E 014°48'0 0.0
2017-Aug-13 10:58N 35°53' E 014°48'0 0.0
2017-Aug-13 10:28N 35°53' E 014°48'0 0.0
2017-Aug-13 09:58N 35°53' E 014°48'0 0.0
2017-Aug-13 09:28N 35°53' E 014°48'0 0.0
2017-Aug-13 08:58N 35°53' E 014°48'0 0.1
2017-Aug-13 08:28N 35°53' E 014°48'0 0.0
2017-Aug-13 07:58N 35°53' E 014°48'0 0.0
2017-Aug-13 07:28N 35°53' E 014°48'0 0.0
2017-Aug-13 06:55N 35°53' E 014°48'0 0.0
2017-Aug-13 06:28N 35°53' E 014°48'0 0.0
2017-Aug-13 05:55N 35°53' E 014°48'0 0.0
2017-Aug-13 05:28N 35°53' E 014°48'0 0.0
2017-Aug-13 04:58N 35°53' E 014°48'0 0.0
2017-Aug-13 04:28N 35°53' E 014°48'0 0.0
2017-Aug-13 03:58N 35°53' E 014°48'0 0.0
2017-Aug-13 03:28N 35°53' E 014°48'0 0.0
2017-Aug-13 02:58N 35°53' E 014°48'0 0.0
2017-Aug-13 02:28N 35°53' E 014°48'0 0.0
2017-Aug-13 01:58N 35°53' E 014°48'0 0.1
2017-Aug-13 01:28N 35°53' E 014°48'0 0.0
2017-Aug-13 00:55N 35°53' E 014°48'0 0.0
2017-Aug-13 00:25N 35°53' E 014°48'0 0.0
2017-Aug-12 23:58N 35°53' E 014°48'0 0.0
2017-Aug-12 23:28N 35°53' E 014°48'0 0.1
2017-Aug-12 22:58N 35°53' E 014°48'0 0.1
2017-Aug-12 22:28N 35°53' E 014°48'0 0.0
2017-Aug-12 21:58N 35°53' E 014°48'0 0.1
2017-Aug-12 21:28N 35°53' E 014°48'0 0.1
2017-Aug-12 20:58N 35°53' E 014°48'0 0.1
2017-Aug-12 20:28N 35°53' E 014°48'0 0.0
2017-Aug-12 19:58N 35°53' E 014°48'0 0.1
2017-Aug-12 19:25N 35°53' E 014°48'0 0.1
2017-Aug-12 18:58N 35°53' E 014°48'0 0.0
2017-Aug-12 18:28N 35°53' E 014°48'0 0.0
2017-Aug-12 17:58N 35°53' E 014°48'0 0.1
2017-Aug-12 17:22N 35°53' E 014°48'0 0.1
2017-Aug-12 16:58N 35°53' E 014°48'0 0.1
2017-Aug-12 16:25N 35°53' E 014°48'0 0.1
2017-Aug-12 15:58N 35°53' E 014°48'0 0.0
2017-Aug-12 15:25N 35°53' E 014°48'0 0.0
2017-Aug-12 14:55N 35°53' E 014°48'0 0.1
2017-Aug-12 14:28N 35°53' E 014°48'0 0.0
2017-Aug-12 13:58N 35°53' E 014°48'0 0.1
2017-Aug-12 13:28N 35°53' E 014°48'0 0.1
2017-Aug-12 12:58N 35°53' E 014°48'0 0.1
2017-Aug-12 12:28N 35°53' E 014°48'0 0.0
2017-Aug-12 11:58N 35°53' E 014°48'0 0.0
2017-Aug-12 11:28N 35°53' E 014°48'0 0.0
2017-Aug-12 10:58N 35°53' E 014°48'0 0.0
2017-Aug-12 10:28N 35°53' E 014°48'0 0.0
2017-Aug-12 09:58N 35°53' E 014°48'0 0.0
2017-Aug-12 09:28N 35°53' E 014°48'0 0.0
2017-Aug-12 08:58N 35°53' E 014°48'0 0.0
2017-Aug-12 08:28N 35°53' E 014°48'0 0.0
2017-Aug-12 07:58N 35°53' E 014°48'0 0.0
2017-Aug-12 07:28N 35°53' E 014°48'0 0.1
2017-Aug-12 06:58N 35°53' E 014°48'0 0.1
2017-Aug-12 06:22N 35°53' E 014°48'0 0.0
2017-Aug-12 05:58N 35°53' E 014°48'0 0.0
2017-Aug-12 05:28N 35°53' E 014°48'0 0.0
2017-Aug-12 04:58N 35°53' E 014°48'0 0.0
2017-Aug-12 04:28N 35°53' E 014°48'0 0.0
2017-Aug-12 03:58N 35°53' E 014°48'0 0.0
2017-Aug-12 03:28N 35°53' E 014°48'0 0.0
2017-Aug-12 02:58N 35°53' E 014°48'0 0.0
2017-Aug-12 02:28N 35°53' E 014°48'0 0.0
2017-Aug-12 01:58N 35°53' E 014°48'0 0.0
2017-Aug-12 01:28N 35°53' E 014°48'0 0.0
2017-Aug-12 00:58N 35°53' E 014°48'0 0.0
2017-Aug-12 00:28N 35°53' E 014°48'0 0.0
2017-Aug-11 23:58N 35°53' E 014°48'0 0.0
2017-Aug-11 23:28N 35°53' E 014°48'0 0.0
2017-Aug-11 22:58N 35°53' E 014°48'0 0.0
2017-Aug-11 22:28N 35°53' E 014°48'0 0.0
2017-Aug-11 21:58N 35°53' E 014°48'0 0.0
2017-Aug-11 21:28N 35°53' E 014°48'0 0.0
2017-Aug-11 20:49N 35°53' E 014°48'0 0.1
2017-Aug-11 20:28N 35°53' E 014°48'0 0.1
2017-Aug-11 19:58N 35°53' E 014°48'0 0.0
2017-Aug-11 19:28N 35°53' E 014°48'0 0.0
2017-Aug-11 18:58N 35°53' E 014°48'0 0.0
2017-Aug-11 18:28N 35°53' E 014°48'0 0.0
2017-Aug-11 17:55N 35°53' E 014°48'0 0.0
2017-Aug-11 17:28N 35°53' E 014°48'0 0.0
2017-Aug-11 16:58N 35°53' E 014°48'0 0.0
2017-Aug-11 16:28N 35°53' E 014°48'0 0.1
2017-Aug-11 15:58N 35°53' E 014°48'0 0.0
2017-Aug-11 15:28N 35°53' E 014°48'0 0.0
2017-Aug-11 14:58N 35°53' E 014°48'0 0.0
2017-Aug-11 13:58N 35°53' E 014°48'0 0.0
2017-Aug-11 13:28N 35°53' E 014°48'0 0.0
2017-Aug-11 12:58N 35°53' E 014°48'0 0.0
2017-Aug-11 12:28N 35°53' E 014°48'0 0.0
2017-Aug-11 11:58N 35°53' E 014°48'0 0.0
2017-Aug-11 11:28N 35°53' E 014°48'0 0.1
2017-Aug-11 10:58N 35°53' E 014°48'0 0.0
2017-Aug-11 10:28N 35°53' E 014°48'0 0.0
2017-Aug-11 09:58N 35°53' E 014°48'0 0.0
2017-Aug-11 09:28N 35°53' E 014°48'0 0.0
2017-Aug-11 08:52N 35°53' E 014°48'0 0.0
2017-Aug-11 08:28N 35°53' E 014°48'0 0.0
2017-Aug-11 07:58N 35°53' E 014°48'0 0.0
2017-Aug-11 07:25N 35°53' E 014°48'0 0.1
2017-Aug-11 06:58N 35°53' E 014°48'0 0.0
2017-Aug-11 06:28N 35°53' E 014°48'0 0.0
2017-Aug-11 05:58N 35°53' E 014°48'0 0.0
2017-Aug-11 05:28N 35°53' E 014°48'0 0.0
2017-Aug-11 04:58N 35°53' E 014°48'0 0.0
2017-Aug-11 04:28N 35°53' E 014°48'0 0.0
2017-Aug-11 03:55N 35°53' E 014°48'0 0.1
2017-Aug-11 03:28N 35°53' E 014°48'0 0.1
2017-Aug-11 02:58N 35°53' E 014°48'0 0.0
2017-Aug-11 02:28N 35°53' E 014°48'0 0.0
2017-Aug-11 01:58N 35°53' E 014°48'0 0.0
2017-Aug-11 01:28N 35°53' E 014°48'0 0.0
2017-Aug-11 00:58N 35°53' E 014°48'0 0.1
2017-Aug-11 00:28N 35°53' E 014°48'0 0.1
2017-Aug-10 23:55N 35°53' E 014°48'0 0.1
2017-Aug-10 23:28N 35°53' E 014°48'0 0.0
2017-Aug-10 22:55N 35°53' E 014°48'0 0.0
2017-Aug-10 22:28N 35°53' E 014°48'0 0.0
2017-Aug-10 21:58N 35°53' E 014°48'0 0.1
2017-Aug-10 21:28N 35°53' E 014°48'0 0.1
2017-Aug-10 20:55N 35°53' E 014°48'0 0.1
2017-Aug-10 20:28N 35°53' E 014°48'0 0.1
2017-Aug-10 19:58N 35°53' E 014°48'1 1.5
2017-Aug-10 19:30N 35°53' E 014°49'3 5.3
2017-Aug-10 18:59N 35°52' E 014°52'3 5.4
2017-Aug-10 18:30N 35°51' E 014°55'0 0.6
2017-Aug-10 18:00N 35°51' E 014°55'2 3.2
2017-Aug-10 17:30N 35°52' E 014°57'4 8.1
2017-Aug-10 17:00N 35°54' E 015°01'1 2.8
2017-Aug-10 16:30N 35°56' E 015°01'1 1.0
2017-Aug-10 16:00N 35°56' E 015°01'1 1.1
2017-Aug-10 15:30N 35°56' E 015°00'1 1.1
2017-Aug-10 15:00N 35°57' E 014°60'1 1.1
2017-Aug-10 14:30N 35°57' E 014°59'1 1.1
2017-Aug-10 14:00N 35°57' E 014°59'0 0.9
2017-Aug-10 13:30N 35°58' E 014°58'0 0.7
2017-Aug-10 13:00N 35°58' E 014°58'0 0.7
2017-Aug-10 12:30N 35°58' E 014°58'0 0.7
2017-Aug-10 12:00N 35°58' E 014°57'0 0.7
2017-Aug-10 11:29N 35°59' E 014°57'0 0.9
2017-Aug-10 11:00N 35°59' E 014°57'1 1.5
2017-Aug-10 10:30N 35°58' E 014°56'2 4.2
2017-Aug-10 10:00N 35°57' E 014°58'5 9.1
2017-Aug-10 09:30N 35°53' E 015°01'2 4.6
2017-Aug-10 09:00N 35°51' E 015°01'1 2.0
2017-Aug-10 08:30N 35°52' E 015°00'2 4.1
2017-Aug-10 08:00N 35°52' E 014°58'1 1.6
2017-Aug-10 07:30N 35°53' E 014°58'0 0.9
2017-Aug-10 07:00N 35°53' E 014°58'0 0.9
2017-Aug-10 06:30N 35°54' E 014°58'0 0.8
2017-Aug-10 06:00N 35°54' E 014°58'0 0.8
2017-Aug-10 05:30N 35°55' E 014°58'0 0.9
2017-Aug-10 05:00N 35°55' E 014°58'0 1.0
2017-Aug-10 04:30N 35°55' E 014°57'3 5.4
2017-Aug-10 04:00N 35°58' E 014°56'613.0
2017-Aug-10 03:31N 36°01' E 014°49'713.1
2017-Aug-10 03:00N 36°02' E 014°41'713.1
2017-Aug-10 02:30N 36°04' E 014°33'815.5
2017-Aug-10 02:00N 36°07' E 014°25'815.6
2017-Aug-10 01:30N 36°11' E 014°16'815.6
2017-Aug-10 01:00N 36°14' E 014°07'815.5
2017-Aug-10 00:30N 36°17' E 013°58'815.4
2017-Aug-10 00:00N 36°20' E 013°49'815.3
2017-Aug-09 23:30N 36°23' E 013°41'815.3
2017-Aug-09 23:00N 36°26' E 013°32'815.1
2017-Aug-09 22:30N 36°30' E 013°24'815.1
2017-Aug-09 22:00N 36°34' E 013°16'815.0
2017-Aug-09 21:30N 36°37' E 013°07'714.9
2017-Aug-09 21:00N 36°41' E 012°59'715.0
2017-Aug-09 20:30N 36°44' E 012°51'714.8
2017-Aug-09 20:00N 36°48' E 012°43'714.7
2017-Aug-09 19:30N 36°50' E 012°34'714.9
2017-Aug-09 19:00N 36°52' E 012°25'714.9
2017-Aug-09 18:30N 36°54' E 012°16'714.8
2017-Aug-09 18:00N 36°57' E 012°08'714.9
2017-Aug-09 17:30N 37°00' E 011°59'815.0
2017-Aug-09 17:00N 37°04' E 011°51'815.1
2017-Aug-09 16:30N 37°08' E 011°43'815.2
2017-Aug-09 16:00N 37°12' E 011°35'815.1
2017-Aug-09 15:30N 37°16' E 011°27'815.0
2017-Aug-09 15:00N 37°20' E 011°19'715.0
2017-Aug-09 14:30N 37°23' E 011°10'715.0
2017-Aug-09 14:00N 37°26' E 011°02'815.4
2017-Aug-09 13:30N 37°30' E 010°53'815.6
2017-Aug-09 13:00N 37°34' E 010°45'815.7
2017-Aug-09 12:30N 37°38' E 010°36'815.8
2017-Aug-09 11:59N 37°42' E 010°27'815.7
2017-Aug-09 11:30N 37°45' E 010°19'815.8
2017-Aug-09 10:59N 37°49' E 010°10'815.8
2017-Aug-09 10:29N 37°53' E 010°01'815.8
2017-Aug-09 09:59N 37°56' E 009°52'815.7
2017-Aug-09 09:30N 37°59' E 009°43'  

Dump ship's entire track history